createdAt,value
2022-08-09T00:01:52.534Z,12.20
2022-08-09T00:04:34.293Z,11.70
2022-08-09T00:07:10.500Z,9.00
2022-08-09T00:09:40.454Z,6.70
2022-08-09T00:12:22.377Z,6.60
2022-08-09T00:14:55.848Z,6.30
2022-08-09T00:18:07.757Z,7.00
2022-08-09T00:20:15.374Z,7.20
2022-08-09T00:22:47.286Z,7.40
2022-08-09T00:25:23.071Z,7.50
2022-08-09T00:27:55.881Z,7.40
2022-08-09T00:30:25.933Z,6.80
2022-08-09T00:32:55.151Z,6.70
2022-08-09T00:35:24.584Z,6.30
2022-08-09T00:37:57.180Z,7.10
2022-08-09T00:40:30.296Z,7.50
2022-08-09T00:44:14.883Z,7.70
2022-08-09T00:45:54.148Z,7.50
2022-08-09T00:48:24.902Z,8.00
2022-08-09T00:50:54.977Z,9.30
2022-08-09T00:53:24.172Z,10.40
2022-08-09T00:56:05.049Z,10.00
2022-08-09T00:58:38.030Z,10.10
2022-08-09T01:01:32.483Z,10.60
2022-08-09T01:04:47.082Z,10.50
2022-08-09T01:07:59.960Z,10.70
2022-08-09T01:11:03.847Z,10.60
2022-08-09T01:13:58.807Z,9.30
2022-08-09T01:16:40.814Z,9.00
2022-08-09T01:20:01.753Z,7.70
2022-08-09T01:22:54.872Z,7.50
2022-08-09T01:25:56.109Z,7.10
2022-08-09T01:28:27.318Z,7.50
2022-08-09T01:31:01.314Z,6.80
2022-08-09T01:33:37.247Z,6.50
2022-08-09T01:36:14.190Z,6.50
2022-08-09T01:38:48.446Z,6.30
2022-08-09T01:41:28.603Z,6.50
2022-08-09T01:46:33.791Z,5.90
2022-08-09T01:49:10.580Z,6.00
2022-08-09T01:51:44.404Z,5.80
2022-08-09T01:54:15.127Z,5.20
2022-08-09T01:56:51.708Z,5.60
2022-08-09T01:59:23.412Z,5.40
2022-08-09T02:01:58.205Z,6.00
2022-08-09T02:04:32.852Z,5.50
2022-08-09T02:08:38.484Z,5.80
2022-08-09T02:10:29.765Z,4.90
2022-08-09T02:13:07.759Z,5.40
2022-08-09T02:15:49.516Z,5.50
2022-08-09T02:18:27.191Z,5.30
2022-08-09T02:21:08.219Z,5.60
2022-08-09T02:23:42.867Z,5.30
2022-08-09T02:26:24.876Z,5.10
2022-08-09T02:29:10.447Z,5.20
2022-08-09T02:31:44.591Z,5.60
2022-08-09T02:34:40.851Z,5.00
2022-08-09T02:37:14.389Z,6.40
2022-08-09T02:40:26.945Z,7.50
2022-08-09T02:43:05.968Z,5.00
2022-08-09T02:45:47.459Z,5.60
2022-08-09T02:48:30.452Z,4.80
2022-08-09T02:51:02.650Z,5.20
2022-08-09T02:53:35.399Z,5.50
2022-08-09T02:56:06.015Z,5.40
2022-08-09T02:58:37.965Z,5.40
2022-08-09T03:01:11.104Z,5.80
2022-08-09T03:04:17.839Z,5.90
2022-08-09T03:06:36.180Z,6.20
2022-08-09T03:09:06.430Z,6.30
2022-08-09T03:12:06.183Z,7.10
2022-08-09T03:14:28.112Z,6.00
2022-08-09T03:16:59.649Z,7.30
2022-08-09T03:19:52.260Z,6.70
2022-08-09T03:22:41.480Z,5.90
2022-08-09T03:25:21.692Z,6.10
2022-08-09T03:28:02.148Z,7.00
2022-08-09T03:30:34.276Z,6.50
2022-08-09T03:33:17.392Z,7.00
2022-08-09T03:36:16.605Z,5.60
2022-08-09T03:38:42.647Z,5.60
2022-08-09T03:41:15.376Z,6.30
2022-08-09T03:44:02.784Z,6.70
2022-08-09T03:46:36.966Z,6.50
2022-08-09T03:49:07.883Z,6.50
2022-08-09T03:51:56.288Z,6.50
2022-08-09T03:54:38.482Z,7.40
2022-08-09T03:57:20.304Z,7.20
2022-08-09T03:59:54.945Z,6.40
2022-08-09T04:02:27.936Z,7.50
2022-08-09T04:05:00.668Z,7.80
2022-08-09T04:07:47.465Z,7.20
2022-08-09T04:10:20.704Z,6.70
2022-08-09T04:12:51.923Z,7.20
2022-08-09T04:15:38.941Z,6.50
2022-08-09T04:18:16.726Z,6.60
2022-08-09T04:20:48.193Z,6.50
2022-08-09T04:23:17.559Z,7.20
2022-08-09T04:25:49.743Z,5.60
2022-08-09T04:28:30.695Z,6.00
2022-08-09T04:31:08.664Z,6.00
2022-08-09T04:33:52.308Z,5.80
2022-08-09T04:36:27.767Z,5.70
2022-08-09T04:38:59.283Z,6.30
2022-08-09T04:41:32.242Z,6.20
2022-08-09T04:44:10.973Z,6.20
2022-08-09T04:46:58.169Z,6.30
2022-08-09T04:49:52.709Z,6.20
2022-08-09T04:52:27.322Z,5.80
2022-08-09T04:55:04.329Z,6.20
2022-08-09T04:57:54.337Z,6.40
2022-08-09T05:00:31.711Z,6.40
2022-08-09T05:03:30.244Z,6.30
2022-08-09T05:06:06.445Z,6.50
2022-08-09T05:08:36.495Z,6.20
2022-08-09T05:11:06.680Z,6.30
2022-08-09T05:13:38.901Z,6.70
2022-08-09T05:16:08.779Z,6.80
2022-08-09T05:18:50.620Z,7.00
2022-08-09T05:21:29.956Z,7.10
2022-08-09T05:24:02.078Z,7.00
2022-08-09T05:26:45.538Z,6.70
2022-08-09T05:29:23.981Z,7.20
2022-08-09T05:31:56.253Z,6.90
2022-08-09T05:34:32.548Z,7.40
2022-08-09T05:37:06.575Z,6.90
2022-08-09T05:39:42.348Z,7.80
2022-08-09T05:42:17.826Z,7.50
2022-08-09T05:44:52.337Z,7.40
2022-08-09T05:47:23.059Z,7.80
2022-08-09T05:50:25.853Z,8.00
2022-08-09T05:52:43.200Z,7.60
2022-08-09T05:55:18.143Z,7.50
2022-08-09T05:57:56.942Z,6.80
2022-08-09T06:00:29.565Z,6.50
2022-08-09T06:03:00.210Z,6.80
2022-08-09T06:05:49.881Z,7.40
2022-08-09T06:08:24.336Z,7.10
2022-08-09T06:10:58.218Z,7.60
2022-08-09T06:13:28.673Z,7.40
2022-08-09T06:16:04.549Z,8.00
2022-08-09T06:18:34.941Z,7.40
2022-08-09T06:21:06.820Z,6.60
2022-08-09T06:23:57.135Z,6.60
2022-08-09T06:26:28.565Z,7.20
2022-08-09T06:29:00.035Z,6.40
2022-08-09T06:31:39.905Z,7.80
2022-08-09T06:34:23.452Z,7.80
2022-08-09T06:39:49.033Z,7.30
2022-08-09T06:42:24.915Z,7.50
2022-08-09T06:44:58.773Z,7.80
2022-08-09T06:47:39.508Z,7.30
2022-08-09T06:50:14.518Z,7.10
2022-08-09T06:52:48.811Z,7.30
2022-08-09T06:55:22.502Z,7.70
2022-08-09T06:58:02.939Z,7.60
2022-08-09T07:00:51.953Z,7.90
2022-08-09T07:03:27.669Z,8.30
2022-08-09T07:06:04.746Z,8.00
2022-08-09T07:08:37.034Z,8.00
2022-08-09T07:11:08.541Z,8.30
2022-08-09T07:13:45.422Z,6.60
2022-08-09T07:16:42.754Z,7.00
2022-08-09T07:19:23.010Z,6.70
2022-08-09T07:21:57.624Z,6.70
2022-08-09T07:24:31.935Z,6.60
2022-08-09T07:27:27.428Z,6.40
2022-08-09T07:30:01.078Z,6.20
2022-08-09T07:32:32.010Z,5.70
2022-08-09T07:35:08.014Z,6.00
2022-08-09T07:37:45.664Z,5.40
2022-08-09T07:40:18.481Z,5.40
2022-08-09T07:42:57.030Z,6.40
2022-08-09T07:45:37.559Z,6.40
2022-08-09T07:51:09.422Z,6.50
2022-08-09T07:54:06.223Z,6.60
2022-08-09T07:56:48.905Z,6.40
2022-08-09T07:59:33.690Z,6.00
2022-08-09T08:02:03.573Z,5.80
2022-08-09T08:04:34.436Z,6.10
2022-08-09T08:07:14.837Z,5.30
2022-08-09T08:10:08.389Z,4.90
2022-08-09T08:12:44.006Z,5.40
2022-08-09T08:15:17.984Z,8.80
2022-08-09T08:17:55.589Z,5.00
2022-08-09T08:20:32.412Z,4.60
2022-08-09T08:23:16.376Z,4.70
2022-08-09T08:25:50.083Z,4.30
2022-08-09T08:28:32.313Z,4.70
2022-08-09T08:31:13.663Z,4.50
2022-08-09T08:33:52.765Z,4.30
2022-08-09T08:36:28.782Z,4.00
2022-08-09T08:39:00.337Z,4.00
2022-08-09T08:41:51.494Z,3.90
2022-08-09T08:44:27.165Z,3.90
2022-08-09T08:47:04.594Z,3.60
2022-08-09T08:49:46.957Z,3.80
2022-08-09T08:55:15.183Z,3.30
2022-08-09T08:57:56.353Z,3.50
2022-08-09T09:00:34.210Z,3.60
2022-08-09T09:03:22.685Z,4.00
2022-08-09T09:06:00.468Z,3.40
2022-08-09T09:08:52.382Z,4.50
2022-08-09T09:11:21.332Z,3.90
2022-08-09T09:13:57.064Z,3.90
2022-08-09T09:16:34.085Z,3.80
2022-08-09T09:22:11.989Z,4.20
2022-08-09T09:24:43.301Z,4.10
2022-08-09T09:28:02.918Z,4.20
2022-08-09T09:30:26.120Z,4.30
2022-08-09T09:34:00.772Z,4.40
2022-08-09T09:40:46.423Z,4.70
2022-08-09T09:43:20.240Z,4.80
2022-08-09T09:45:57.292Z,5.30
2022-08-09T09:48:59.557Z,4.50
2022-08-09T09:51:38.406Z,4.50
2022-08-09T09:54:21.030Z,5.10
2022-08-09T09:58:00.861Z,5.50
2022-08-09T09:59:39.014Z,5.10
2022-08-09T10:02:07.353Z,5.10
2022-08-09T10:04:37.011Z,4.80
2022-08-09T10:07:10.022Z,4.60
2022-08-09T10:09:54.538Z,4.10
2022-08-09T10:12:43.892Z,3.90
2022-08-09T10:15:50.693Z,4.30
2022-08-09T10:18:12.441Z,4.40
2022-08-09T10:20:44.655Z,4.40
2022-08-09T10:23:20.344Z,5.20
2022-08-09T10:26:06.183Z,4.80
2022-08-09T10:28:38.727Z,4.20
2022-08-09T10:34:34.017Z,3.80
2022-08-09T10:37:09.652Z,4.00
2022-08-09T10:39:48.970Z,3.70
2022-08-09T10:42:18.716Z,3.90
2022-08-09T10:44:50.852Z,3.90
2022-08-09T10:48:20.215Z,4.00
2022-08-09T10:51:04.182Z,3.90
2022-08-09T10:53:37.899Z,3.50
2022-08-09T10:56:25.598Z,4.00
2022-08-09T10:58:56.268Z,4.60
2022-08-09T11:03:16.002Z,3.60
2022-08-09T11:04:32.026Z,4.30
2022-08-09T11:07:01.613Z,3.70
2022-08-09T11:09:39.030Z,3.70
2022-08-09T11:12:17.794Z,4.60
2022-08-09T11:14:57.627Z,4.30
2022-08-09T11:17:26.423Z,4.10
2022-08-09T11:20:10.963Z,4.20
2022-08-09T11:22:49.082Z,4.20
2022-08-09T11:25:44.834Z,4.50
2022-08-09T11:28:38.297Z,4.20
2022-08-09T11:31:56.669Z,4.70
2022-08-09T11:34:42.031Z,5.20
2022-08-09T11:37:31.326Z,4.50
2022-08-09T11:40:13.044Z,4.80
2022-08-09T11:42:54.606Z,4.80
2022-08-09T11:45:42.033Z,5.10
2022-08-09T11:48:26.652Z,5.00
2022-08-09T11:52:59.085Z,5.30
2022-08-09T11:54:13.461Z,4.70
2022-08-09T11:56:48.334Z,4.70
2022-08-09T11:59:30.469Z,5.10
2022-08-09T12:02:34.845Z,5.10
2022-08-09T12:04:58.157Z,5.30
2022-08-09T12:07:29.114Z,5.00
2022-08-09T12:10:31.977Z,5.30
2022-08-09T12:14:10.542Z,5.60
2022-08-09T12:16:03.154Z,5.50
2022-08-09T12:18:33.808Z,5.40
2022-08-09T12:21:11.037Z,5.00
2022-08-09T12:24:08.601Z,5.40
2022-08-09T12:28:58.427Z,5.00
2022-08-09T12:30:01.580Z,5.50
2022-08-09T12:32:48.593Z,5.00
2022-08-09T12:35:21.771Z,4.90
2022-08-09T12:37:52.266Z,4.70
2022-08-09T12:40:25.015Z,4.40
2022-08-09T12:42:54.780Z,4.70
2022-08-09T12:45:33.296Z,4.70
2022-08-09T12:48:19.935Z,4.60
2022-08-09T12:50:53.482Z,4.50
2022-08-09T12:53:37.749Z,4.90
2022-08-09T12:56:37.051Z,4.30
2022-08-09T12:59:15.604Z,4.40
2022-08-09T13:01:58.912Z,4.50
2022-08-09T13:04:36.214Z,4.30
2022-08-09T13:07:19.540Z,4.00
2022-08-09T13:10:03.209Z,4.20
2022-08-09T13:12:32.716Z,3.90
2022-08-09T13:15:09.940Z,3.70
2022-08-09T13:18:03.722Z,4.30
2022-08-09T13:20:37.721Z,4.00
2022-08-09T13:24:17.126Z,3.80
2022-08-09T13:26:42.328Z,4.10
2022-08-09T13:29:16.150Z,3.80
2022-08-09T13:32:17.165Z,3.90
2022-08-09T13:34:49.143Z,3.70
2022-08-09T13:37:51.167Z,3.90
2022-08-09T13:41:54.895Z,3.50
2022-08-09T13:42:57.410Z,3.80
2022-08-09T13:45:31.821Z,3.70
2022-08-09T13:48:14.729Z,4.00
2022-08-09T13:50:44.066Z,3.90
2022-08-09T13:53:16.891Z,4.10
2022-08-09T13:55:47.925Z,4.10
2022-08-09T13:58:16.815Z,4.50
2022-08-09T14:00:50.403Z,4.80
2022-08-09T14:04:02.177Z,4.30
2022-08-09T14:06:19.214Z,3.90
2022-08-09T14:08:48.163Z,4.00
2022-08-09T14:11:16.816Z,4.30
2022-08-09T14:14:23.291Z,4.40
2022-08-09T14:16:34.668Z,4.00
2022-08-09T14:19:03.143Z,4.00
2022-08-09T14:21:31.776Z,3.90
2022-08-09T14:24:01.188Z,3.80
2022-08-09T14:26:38.937Z,3.30
2022-08-09T14:30:34.011Z,3.50
2022-08-09T14:32:04.590Z,3.10
2022-08-09T14:34:40.930Z,2.70
2022-08-09T14:37:09.986Z,2.90
2022-08-09T14:39:46.634Z,2.50
2022-08-09T14:42:30.110Z,2.60
2022-08-09T14:45:52.008Z,2.90
2022-08-09T14:47:58.088Z,2.50
2022-08-09T14:50:33.236Z,3.80
2022-08-09T14:53:11.532Z,2.50
2022-08-09T14:55:49.901Z,2.70
2022-08-09T14:58:19.843Z,2.50
2022-08-09T15:00:51.203Z,2.60
2022-08-09T15:03:21.084Z,2.50
2022-08-09T15:05:58.136Z,2.60
2022-08-09T15:08:30.287Z,2.90
2022-08-09T15:11:01.788Z,2.70
2022-08-09T15:13:48.445Z,2.70
2022-08-09T15:16:22.712Z,2.60
2022-08-09T15:18:52.473Z,3.30
2022-08-09T15:21:55.664Z,2.80
2022-08-09T15:24:17.608Z,3.50
2022-08-09T15:30:58.348Z,3.70
2022-08-09T15:32:28.777Z,3.10
2022-08-09T15:35:18.294Z,3.60
2022-08-09T15:37:56.681Z,2.90
2022-08-09T15:40:43.561Z,3.10
2022-08-09T15:43:13.737Z,3.00
2022-08-09T15:46:07.597Z,3.30
2022-08-09T15:48:32.446Z,3.00
2022-08-09T15:51:01.886Z,4.10
2022-08-09T15:54:05.123Z,3.40
2022-08-09T15:56:20.397Z,3.10
2022-08-09T15:58:50.654Z,3.20
2022-08-09T16:01:19.956Z,3.20
2022-08-09T16:03:51.043Z,3.60
2022-08-09T16:06:32.666Z,3.40
2022-08-09T16:09:05.783Z,3.50
2022-08-09T16:11:34.461Z,3.20
2022-08-09T16:14:07.189Z,3.40
2022-08-09T16:16:38.056Z,3.30
2022-08-09T16:19:10.279Z,3.00
2022-08-09T16:21:51.671Z,3.30
2022-08-09T16:24:33.013Z,3.40
2022-08-09T16:27:05.065Z,3.00
2022-08-09T16:29:37.322Z,4.10
2022-08-09T16:32:17.694Z,3.60
2022-08-09T16:34:58.009Z,3.30
2022-08-09T16:37:55.229Z,3.50
2022-08-09T16:40:29.773Z,3.20
2022-08-09T16:43:05.393Z,3.70
2022-08-09T16:45:33.957Z,3.30
2022-08-09T16:48:41.895Z,3.40
2022-08-09T16:50:59.714Z,3.50
2022-08-09T16:53:43.816Z,3.30
2022-08-09T16:56:25.790Z,2.90
2022-08-09T16:58:54.306Z,3.10
2022-08-09T17:01:23.721Z,3.90
2022-08-09T17:03:54.530Z,4.80
2022-08-09T17:06:29.326Z,6.20
2022-08-09T17:09:43.872Z,7.10
2022-08-09T17:11:53.518Z,6.30
2022-08-09T17:14:27.346Z,7.40
2022-08-09T17:17:01.075Z,8.90
2022-08-09T17:20:05.180Z,6.70
2022-08-09T17:22:25.168Z,6.60
2022-08-09T17:25:03.358Z,9.00
2022-08-09T17:27:34.734Z,8.50
2022-08-09T17:30:12.795Z,7.70
2022-08-09T17:32:45.497Z,8.10
2022-08-09T17:35:15.395Z,8.00
2022-08-09T17:38:12.642Z,7.70
2022-08-09T17:40:35.963Z,8.80
2022-08-09T17:43:33.054Z,8.60
2022-08-09T17:46:03.355Z,7.80
2022-08-09T17:48:38.357Z,12.30
2022-08-09T17:51:18.212Z,9.00
2022-08-09T17:53:51.807Z,7.30
2022-08-09T17:56:27.529Z,6.60
2022-08-09T17:59:16.718Z,6.80
2022-08-09T18:02:11.215Z,7.20
2022-08-09T18:04:37.067Z,7.10
2022-08-09T18:07:10.037Z,6.60
2022-08-09T18:10:05.074Z,7.60
2022-08-09T18:12:40.689Z,7.90
2022-08-09T18:15:27.628Z,6.90
2022-08-09T18:18:10.479Z,7.20
2022-08-09T18:21:19.266Z,7.40
2022-08-09T18:24:10.036Z,7.30
2022-08-09T18:26:32.930Z,8.90
2022-08-09T18:30:40.978Z,8.40
2022-08-09T18:31:51.206Z,9.00
2022-08-09T18:34:24.885Z,8.00
2022-08-09T18:36:53.648Z,8.70
2022-08-09T18:39:31.913Z,8.90
2022-08-09T18:42:08.951Z,8.20
2022-08-09T18:44:37.417Z,8.60
2022-08-09T18:47:15.146Z,8.50
2022-08-09T18:49:46.561Z,7.20
2022-08-09T18:52:18.831Z,7.60
2022-08-09T18:54:53.734Z,7.30
2022-08-09T18:57:23.931Z,7.60
2022-08-09T19:00:10.991Z,7.50
2022-08-09T19:02:40.418Z,8.30
2022-08-09T19:05:19.598Z,8.20
2022-08-09T19:08:04.473Z,8.10
2022-08-09T19:10:40.128Z,8.40
2022-08-09T19:13:20.979Z,7.60
2022-08-09T19:15:53.103Z,8.00
2022-08-09T19:18:33.504Z,8.50
2022-08-09T19:21:09.396Z,8.30
2022-08-09T19:24:37.396Z,7.20
2022-08-09T19:26:32.116Z,7.90
2022-08-09T19:29:03.414Z,7.30
2022-08-09T19:31:45.856Z,8.00
2022-08-09T19:34:21.237Z,8.00
2022-08-09T19:36:55.701Z,8.20
2022-08-09T19:39:43.110Z,7.30
2022-08-09T19:42:19.036Z,7.40
2022-08-09T19:44:51.394Z,7.00
2022-08-09T19:47:23.393Z,8.30
2022-08-09T19:50:06.932Z,7.80
2022-08-09T19:52:51.741Z,7.40
2022-08-09T19:55:25.677Z,7.70
2022-08-09T19:57:54.318Z,7.20
2022-08-09T20:00:23.668Z,7.20
2022-08-09T20:04:17.254Z,8.50
2022-08-09T20:05:46.391Z,8.70
2022-08-09T20:08:33.430Z,9.40
2022-08-09T20:11:05.197Z,10.40
2022-08-09T20:13:37.037Z,11.30
2022-08-09T20:16:37.337Z,11.70
2022-08-09T20:19:41.901Z,12.00
2022-08-09T20:21:56.534Z,11.50
2022-08-09T20:24:29.878Z,9.10
2022-08-09T20:32:17.026Z,10.60
2022-08-09T20:34:35.825Z,12.80
2022-08-09T20:37:06.714Z,13.30
2022-08-09T20:40:15.692Z,13.10
2022-08-09T20:42:23.183Z,12.80
2022-08-09T20:45:28.147Z,11.30
2022-08-09T20:47:47.930Z,10.00
2022-08-09T20:50:48.035Z,12.60
2022-08-09T20:53:22.778Z,13.40
2022-08-09T20:56:00.795Z,16.00
2022-08-09T20:58:32.695Z,16.60
2022-08-09T21:01:33.082Z,16.20
2022-08-09T21:05:49.037Z,14.10
2022-08-09T21:06:44.300Z,15.70
2022-08-09T21:09:14.316Z,16.30
2022-08-09T21:14:38.308Z,16.70
2022-08-09T21:18:11.773Z,17.00
2022-08-09T21:20:17.206Z,17.30
2022-08-09T21:22:54.012Z,16.30
2022-08-09T21:25:44.489Z,16.90
2022-08-09T21:28:34.635Z,18.40
2022-08-09T21:31:16.416Z,18.80
2022-08-09T21:33:51.476Z,18.40
2022-08-09T21:36:23.962Z,19.70
2022-08-09T21:39:00.421Z,16.90
2022-08-09T21:42:04.188Z,17.30
2022-08-09T21:44:32.544Z,16.20
2022-08-09T21:47:08.820Z,15.40
2022-08-09T21:49:42.721Z,16.40
2022-08-09T21:52:17.799Z,16.10
2022-08-09T21:54:59.428Z,15.80
2022-08-09T21:57:39.242Z,16.50
2022-08-09T22:00:31.956Z,16.70
2022-08-09T22:03:05.997Z,15.90
2022-08-09T22:05:42.263Z,17.30
2022-08-09T22:08:16.336Z,17.60
2022-08-09T22:11:00.381Z,17.50
2022-08-09T22:13:36.832Z,17.20
2022-08-09T22:16:08.600Z,18.70
2022-08-09T22:18:53.614Z,20.90
2022-08-09T22:21:44.782Z,22.20
2022-08-09T22:24:16.592Z,23.60
2022-08-09T22:26:51.082Z,24.90
2022-08-09T22:29:27.030Z,26.20
2022-08-09T22:32:01.313Z,28.10
2022-08-09T22:34:29.611Z,29.30
2022-08-09T22:36:59.059Z,22.40
2022-08-09T22:39:55.448Z,24.40
2022-08-09T22:42:22.609Z,20.00
2022-08-09T22:45:00.202Z,18.50
2022-08-09T22:48:14.137Z,18.30
2022-08-09T22:50:33.759Z,19.80
2022-08-09T22:53:03.601Z,19.10
2022-08-09T22:56:07.151Z,20.40
2022-08-09T22:58:33.104Z,20.60
2022-08-09T23:01:06.838Z,20.50
2022-08-09T23:04:04.045Z,20.50
2022-08-09T23:06:32.781Z,20.40
2022-08-09T23:09:07.637Z,21.80
2022-08-09T23:11:36.049Z,24.40
2022-08-09T23:14:10.002Z,27.40
2022-08-09T23:16:45.618Z,28.00
2022-08-09T23:19:14.243Z,29.70
2022-08-09T23:21:43.218Z,30.40
2022-08-09T23:24:11.779Z,30.50
2022-08-09T23:26:42.397Z,30.50
2022-08-09T23:29:14.216Z,29.20
2022-08-09T23:31:42.792Z,30.80
2022-08-09T23:34:11.123Z,30.00
2022-08-09T23:36:39.594Z,30.80
2022-08-09T23:39:08.583Z,29.50
2022-08-09T23:41:37.182Z,29.30
2022-08-09T23:44:05.952Z,29.90
2022-08-09T23:46:34.515Z,29.40
2022-08-09T23:49:03.174Z,29.00
2022-08-09T23:51:31.518Z,29.90
2022-08-09T23:54:02.331Z,33.00
2022-08-09T23:56:52.173Z,31.60
2022-08-09T23:59:23.404Z,32.60
